createdAt,value
2018-07-13T00:00:06.200Z,0
2018-07-13T00:01:07.596Z,0
2018-07-13T00:02:08.987Z,0
2018-07-13T00:03:10.372Z,0
2018-07-13T00:04:11.755Z,0
2018-07-13T00:05:13.147Z,0
2018-07-13T00:06:14.528Z,0
2018-07-13T00:07:15.907Z,0
2018-07-13T00:08:17.292Z,0
2018-07-13T00:09:18.678Z,0
2018-07-13T00:10:20.070Z,0
2018-07-13T00:11:21.450Z,0
2018-07-13T00:12:22.829Z,0
2018-07-13T00:13:24.216Z,0
2018-07-13T00:14:25.618Z,0
2018-07-13T00:15:26.983Z,0
2018-07-13T00:16:28.377Z,0
2018-07-13T00:17:29.758Z,0
2018-07-13T00:18:31.140Z,0
2018-07-13T00:19:32.528Z,0
2018-07-13T00:20:33.920Z,0
2018-07-13T00:21:35.309Z,0
2018-07-13T00:22:36.696Z,0
2018-07-13T00:23:38.100Z,0
2018-07-13T00:24:39.465Z,0
2018-07-13T00:25:40.848Z,0
2018-07-13T00:26:42.236Z,0
2018-07-13T00:27:43.623Z,0
2018-07-13T00:28:45.011Z,0
2018-07-13T00:29:46.406Z,0
2018-07-13T00:30:47.787Z,0
2018-07-13T00:31:49.182Z,0
2018-07-13T00:32:50.562Z,0
2018-07-13T00:33:51.960Z,0
2018-07-13T00:34:53.335Z,0
2018-07-13T00:35:54.728Z,0
2018-07-13T00:36:56.106Z,0
2018-07-13T00:37:57.503Z,0
2018-07-13T00:38:58.880Z,0
2018-07-13T00:40:00.265Z,0
2018-07-13T00:41:01.652Z,0
2018-07-13T00:42:03.031Z,0
2018-07-13T00:43:05.261Z,0
2018-07-13T00:44:06.645Z,0
2018-07-13T00:45:08.039Z,0
2018-07-13T00:46:09.424Z,0
2018-07-13T00:47:10.821Z,0
2018-07-13T00:48:13.065Z,0
2018-07-13T00:49:14.447Z,0
2018-07-13T00:50:16.708Z,0
2018-07-13T00:51:18.101Z,0
2018-07-13T00:52:19.491Z,0
2018-07-13T00:53:20.880Z,0
2018-07-13T00:54:22.262Z,0
2018-07-13T00:55:23.650Z,0
2018-07-13T00:56:25.034Z,0
2018-07-13T00:57:26.420Z,0
2018-07-13T00:58:27.824Z,0
2018-07-13T00:59:29.200Z,0
2018-07-13T01:00:30.587Z,0
2018-07-13T01:01:31.974Z,0
2018-07-13T01:02:33.366Z,0
2018-07-13T01:03:34.753Z,0
2018-07-13T01:04:36.140Z,0
2018-07-13T01:05:37.521Z,0
2018-07-13T01:06:38.906Z,0
2018-07-13T01:07:40.289Z,0
2018-07-13T01:08:41.689Z,0
2018-07-13T01:09:43.557Z,0
2018-07-13T01:10:44.936Z,0
2018-07-13T01:11:46.322Z,0
2018-07-13T01:12:47.701Z,0
2018-07-13T01:13:49.085Z,0
2018-07-13T01:14:50.466Z,0
2018-07-13T01:15:51.863Z,0
2018-07-13T01:16:53.240Z,0
2018-07-13T01:17:54.625Z,0
2018-07-13T01:18:56.014Z,0
2018-07-13T01:19:58.336Z,0
2018-07-13T01:20:59.722Z,0
2018-07-13T01:22:01.111Z,0
2018-07-13T01:23:02.489Z,0
2018-07-13T01:24:03.881Z,0
2018-07-13T01:25:05.274Z,0
2018-07-13T01:26:06.647Z,0
2018-07-13T01:27:08.035Z,0
2018-07-13T01:28:09.414Z,0
2018-07-13T01:29:10.795Z,0
2018-07-13T01:30:12.182Z,0
2018-07-13T01:31:13.574Z,0
2018-07-13T01:32:14.957Z,0
2018-07-13T01:33:16.351Z,0
2018-07-13T01:34:17.739Z,0
2018-07-13T01:35:19.123Z,0
2018-07-13T01:36:20.515Z,0
2018-07-13T01:37:21.895Z,0
2018-07-13T01:38:23.287Z,0
2018-07-13T01:39:24.671Z,0
2018-07-13T01:40:26.063Z,0
2018-07-13T01:41:27.453Z,0
2018-07-13T01:42:28.839Z,0
2018-07-13T01:43:30.217Z,0
2018-07-13T01:44:32.570Z,0
2018-07-13T01:45:33.963Z,0
2018-07-13T01:46:35.352Z,0
2018-07-13T01:47:36.737Z,0
2018-07-13T01:48:38.109Z,0
2018-07-13T01:49:39.497Z,0
2018-07-13T01:50:40.890Z,0
2018-07-13T01:51:42.268Z,0
2018-07-13T01:52:43.650Z,0
2018-07-13T01:53:45.035Z,0
2018-07-13T01:54:46.434Z,0
2018-07-13T01:55:47.811Z,0
2018-07-13T01:56:49.206Z,0
2018-07-13T01:57:50.600Z,0
2018-07-13T01:58:51.984Z,0
2018-07-13T01:59:53.373Z,0
2018-07-13T02:00:54.748Z,0
2018-07-13T02:01:56.138Z,0
2018-07-13T02:02:57.521Z,0
2018-07-13T02:03:58.910Z,0
2018-07-13T02:05:00.296Z,0
2018-07-13T02:06:01.679Z,0
2018-07-13T02:07:03.060Z,0
2018-07-13T02:08:04.455Z,0
2018-07-13T02:09:05.841Z,0
2018-07-13T02:10:07.231Z,0
2018-07-13T02:11:08.613Z,0
2018-07-13T02:12:10.006Z,0
2018-07-13T02:13:11.392Z,0
2018-07-13T02:14:12.775Z,0
2018-07-13T02:15:14.163Z,0
2018-07-13T02:16:15.547Z,0
2018-07-13T02:17:16.943Z,0
2018-07-13T02:18:18.327Z,0
2018-07-13T02:19:19.709Z,0
2018-07-13T02:20:21.091Z,0
2018-07-13T02:21:22.489Z,4
2018-07-13T02:22:23.869Z,4
2018-07-13T02:23:25.260Z,4
2018-07-13T02:24:26.647Z,0
2018-07-13T02:25:28.027Z,4
2018-07-13T02:26:29.429Z,4
2018-07-13T02:27:30.814Z,4
2018-07-13T02:28:32.195Z,4
2018-07-13T02:29:33.582Z,4
2018-07-13T02:30:34.959Z,8
2018-07-13T02:31:36.339Z,4
2018-07-13T02:32:37.731Z,8
2018-07-13T02:33:39.109Z,8
2018-07-13T02:34:40.497Z,8
2018-07-13T02:35:41.879Z,12
2018-07-13T02:36:43.276Z,12
2018-07-13T02:37:44.660Z,12
2018-07-13T02:38:46.070Z,16
2018-07-13T02:39:47.442Z,16
2018-07-13T02:40:48.835Z,16
2018-07-13T02:41:50.226Z,20
2018-07-13T02:42:51.614Z,20
2018-07-13T02:43:52.994Z,20
2018-07-13T02:44:54.382Z,24
2018-07-13T02:45:55.766Z,24
2018-07-13T02:46:57.152Z,28
2018-07-13T02:47:58.542Z,32
2018-07-13T02:48:59.937Z,36
2018-07-13T02:50:01.322Z,36
2018-07-13T02:51:02.717Z,40
2018-07-13T02:52:04.095Z,40
2018-07-13T02:53:05.493Z,44
2018-07-13T02:54:06.875Z,48
2018-07-13T02:55:08.291Z,48
2018-07-13T02:56:09.655Z,52
2018-07-13T02:57:11.045Z,52
2018-07-13T02:58:12.433Z,56
2018-07-13T02:59:13.827Z,60
2018-07-13T03:00:15.211Z,68
2018-07-13T03:01:16.593Z,68
2018-07-13T03:02:17.968Z,72
2018-07-13T03:03:19.369Z,76
2018-07-13T03:04:20.750Z,80
2018-07-13T03:05:22.137Z,88
2018-07-13T03:06:23.533Z,92
2018-07-13T03:07:24.923Z,100
2018-07-13T03:08:26.299Z,104
2018-07-13T03:09:27.691Z,112
2018-07-13T03:10:29.084Z,116
2018-07-13T03:11:30.471Z,124
2018-07-13T03:12:31.852Z,132
2018-07-13T03:13:33.240Z,140
2018-07-13T03:14:34.630Z,148
2018-07-13T03:15:36.014Z,156
2018-07-13T03:16:37.409Z,168
2018-07-13T03:17:38.792Z,172
2018-07-13T03:18:40.180Z,180
2018-07-13T03:19:41.568Z,184
2018-07-13T03:20:43.919Z,188
2018-07-13T03:21:45.313Z,192
2018-07-13T03:22:46.703Z,196
2018-07-13T03:23:48.097Z,204
2018-07-13T03:24:49.477Z,212
2018-07-13T03:25:50.875Z,220
2018-07-13T03:26:52.280Z,232
2018-07-13T03:27:53.663Z,240
2018-07-13T03:28:55.044Z,244
2018-07-13T03:29:56.429Z,244
2018-07-13T03:30:57.827Z,248
2018-07-13T03:31:59.218Z,252
2018-07-13T03:33:00.613Z,252
2018-07-13T03:34:03.173Z,256
2018-07-13T03:35:03.882Z,260
2018-07-13T03:36:05.285Z,272
2018-07-13T03:37:06.676Z,288
2018-07-13T03:38:08.065Z,288
2018-07-13T03:39:09.456Z,296
2018-07-13T03:40:10.841Z,304
2018-07-13T03:41:12.237Z,312
2018-07-13T03:42:13.628Z,324
2018-07-13T03:43:15.013Z,348
2018-07-13T03:44:16.396Z,388
2018-07-13T03:45:17.785Z,420
2018-07-13T03:46:19.188Z,444
2018-07-13T03:47:20.567Z,432
2018-07-13T03:48:21.981Z,368
2018-07-13T03:49:23.338Z,328
2018-07-13T03:50:24.733Z,328
2018-07-13T03:51:26.113Z,336
2018-07-13T03:52:27.505Z,340
2018-07-13T03:53:28.903Z,344
2018-07-13T03:54:30.291Z,352
2018-07-13T03:55:31.680Z,360
2018-07-13T03:56:33.077Z,364
2018-07-13T03:57:34.469Z,376
2018-07-13T03:58:35.854Z,384
2018-07-13T03:59:37.241Z,392
2018-07-13T04:00:38.646Z,400
2018-07-13T04:01:40.024Z,408
2018-07-13T04:02:41.408Z,416
2018-07-13T04:03:42.792Z,428
2018-07-13T04:04:44.181Z,440
2018-07-13T04:05:45.573Z,452
2018-07-13T04:06:46.959Z,464
2018-07-13T04:07:48.355Z,476
2018-07-13T04:08:49.742Z,492
2018-07-13T04:09:51.132Z,504
2018-07-13T04:10:52.522Z,520
2018-07-13T04:11:53.915Z,544
2018-07-13T04:12:55.298Z,576
2018-07-13T04:13:56.693Z,620
2018-07-13T04:14:58.083Z,640
2018-07-13T04:15:59.464Z,648
2018-07-13T04:17:00.862Z,660
2018-07-13T04:18:02.253Z,700
2018-07-13T04:19:03.640Z,728
2018-07-13T04:20:05.028Z,724
2018-07-13T04:21:06.421Z,732
2018-07-13T04:22:07.807Z,756
2018-07-13T04:23:09.202Z,780
2018-07-13T04:24:10.587Z,804
2018-07-13T04:25:11.974Z,804
2018-07-13T04:26:13.367Z,824
2018-07-13T04:27:14.738Z,868
2018-07-13T04:28:16.125Z,896
2018-07-13T04:29:17.524Z,932
2018-07-13T04:30:18.907Z,944
2018-07-13T04:31:20.298Z,980
2018-07-13T04:32:21.695Z,1096
2018-07-13T04:33:23.082Z,1184
2018-07-13T04:34:24.463Z,1220
2018-07-13T04:35:25.853Z,1244
2018-07-13T04:36:27.242Z,1292
2018-07-13T04:37:28.641Z,1352
2018-07-13T04:38:30.030Z,1400
2018-07-13T04:39:31.421Z,1428
2018-07-13T04:40:32.812Z,1452
2018-07-13T04:41:34.199Z,1516
2018-07-13T04:42:35.590Z,1620
2018-07-13T04:43:37.443Z,1736
2018-07-13T04:44:38.832Z,1892
2018-07-13T04:45:40.220Z,2076
2018-07-13T04:46:41.606Z,2204
2018-07-13T04:47:42.998Z,2388
2018-07-13T04:48:44.387Z,2528
2018-07-13T04:49:45.779Z,2740
2018-07-13T04:50:47.159Z,3136
2018-07-13T04:51:48.551Z,3508
2018-07-13T04:52:49.934Z,3816
2018-07-13T04:53:51.335Z,3860
2018-07-13T04:54:52.713Z,3768
2018-07-13T04:55:54.112Z,3840
2018-07-13T04:56:55.499Z,3892
2018-07-13T04:57:56.882Z,3780
2018-07-13T04:58:58.278Z,3776
2018-07-13T04:59:59.664Z,3756
2018-07-13T05:01:01.060Z,3772
2018-07-13T05:02:02.464Z,3732
2018-07-13T05:03:03.852Z,3800
2018-07-13T05:04:05.250Z,3936
2018-07-13T05:05:06.650Z,4020
2018-07-13T05:06:08.068Z,4072
2018-07-13T05:07:09.434Z,4180
2018-07-13T05:08:10.819Z,4084
2018-07-13T05:09:12.217Z,4088
2018-07-13T05:10:13.620Z,4180
2018-07-13T05:11:15.014Z,4368
2018-07-13T05:12:16.408Z,4452
2018-07-13T05:13:17.791Z,4320
2018-07-13T05:14:19.189Z,4480
2018-07-13T05:15:20.579Z,3896
2018-07-13T05:16:21.981Z,3448
2018-07-13T05:17:23.368Z,3320
2018-07-13T05:18:24.759Z,3272
2018-07-13T05:19:26.146Z,3612
2018-07-13T05:20:27.544Z,3112
2018-07-13T05:21:28.945Z,3324
2018-07-13T05:22:30.341Z,3220
2018-07-13T05:23:31.749Z,3568
2018-07-13T05:24:33.131Z,3776
2018-07-13T05:25:34.530Z,3892
2018-07-13T05:26:35.920Z,4164
2018-07-13T05:27:37.310Z,4576
2018-07-13T05:28:38.707Z,5848
2018-07-13T05:29:40.104Z,5304
2018-07-13T05:30:41.559Z,4488
2018-07-13T05:31:42.905Z,4592
2018-07-13T05:32:44.298Z,5308
2018-07-13T05:33:45.694Z,5520
2018-07-13T05:34:47.087Z,2304
2018-07-13T05:35:48.484Z,3872
2018-07-13T05:36:49.877Z,4616
2018-07-13T05:37:51.272Z,4728
2018-07-13T05:38:52.668Z,6340
2018-07-13T05:39:54.061Z,5304
2018-07-13T05:40:55.453Z,5896
2018-07-13T05:41:56.852Z,7244
2018-07-13T05:42:58.253Z,4084
2018-07-13T05:43:59.651Z,3540
2018-07-13T05:45:01.052Z,3272
2018-07-13T05:46:02.441Z,3748
2018-07-13T05:47:03.834Z,3736
2018-07-13T05:48:05.225Z,2904
2018-07-13T05:49:06.611Z,2560
2018-07-13T05:50:08.012Z,1908
2018-07-13T05:51:09.405Z,3168
2018-07-13T13:40:00.085Z,2100
2018-07-13T13:41:01.498Z,2068
2018-07-13T13:42:02.945Z,2100
2018-07-13T13:43:04.279Z,1952
2018-07-13T13:44:05.679Z,1892
2018-07-13T13:45:07.091Z,1856
2018-07-13T13:46:08.491Z,1672
2018-07-13T13:47:09.895Z,1792
2018-07-13T13:48:11.288Z,1932
2018-07-13T13:49:12.682Z,2072
2018-07-13T13:50:14.082Z,2116
2018-07-13T13:51:15.469Z,2184
2018-07-13T13:52:16.869Z,2244
2018-07-13T13:53:18.261Z,2296
2018-07-13T13:54:19.658Z,2208
2018-07-13T13:55:21.045Z,2040
2018-07-13T13:56:22.440Z,2012
2018-07-13T13:57:23.855Z,1752
2018-07-13T13:58:25.251Z,1980
2018-07-13T13:59:26.639Z,2004
2018-07-13T14:00:28.036Z,1924
2018-07-13T14:01:29.433Z,1944
2018-07-13T14:02:30.862Z,2024
2018-07-13T14:03:32.266Z,2164
2018-07-13T14:04:33.674Z,2368
2018-07-13T14:05:35.128Z,2364
2018-07-13T14:06:36.475Z,2180
2018-07-13T14:07:37.885Z,2044
2018-07-13T14:08:39.285Z,2108
2018-07-13T14:09:40.690Z,2152
2018-07-13T14:10:42.102Z,2100
2018-07-13T14:11:43.510Z,2004
2018-07-13T14:12:44.898Z,1820
2018-07-13T14:13:46.287Z,1940
2018-07-13T14:14:47.708Z,1792
2018-07-13T14:15:49.087Z,1740
2018-07-13T14:16:50.484Z,1764
2018-07-13T14:17:51.889Z,1824
2018-07-13T14:18:53.291Z,1804
2018-07-13T14:19:54.692Z,1872
2018-07-13T14:20:56.107Z,1736
2018-07-13T14:21:57.507Z,1692
2018-07-13T14:22:58.905Z,1808
2018-07-13T14:24:00.307Z,1984
2018-07-13T14:25:01.709Z,2172
2018-07-13T14:26:03.100Z,2096
2018-07-13T14:27:04.502Z,2020
2018-07-13T14:28:05.896Z,1960
2018-07-13T14:29:07.297Z,1972
2018-07-13T14:30:08.694Z,2100
2018-07-13T14:31:10.101Z,1900
2018-07-13T14:32:11.496Z,1916
2018-07-13T14:33:12.913Z,1784
2018-07-13T14:34:14.630Z,1728
2018-07-13T14:35:16.090Z,1756
2018-07-13T14:36:17.494Z,1748
2018-07-13T14:37:18.887Z,1856
2018-07-13T14:38:20.283Z,2016
2018-07-13T14:39:21.677Z,1976
2018-07-13T14:40:23.141Z,1996
2018-07-13T14:41:25.292Z,1848
2018-07-13T14:42:26.672Z,1820
2018-07-13T14:43:28.079Z,1828
2018-07-13T14:44:29.487Z,1760
2018-07-13T14:45:30.881Z,1688
2018-07-13T14:46:32.273Z,1680
2018-07-13T14:47:33.668Z,1672
2018-07-13T14:48:35.073Z,1768
2018-07-13T14:49:36.496Z,1684
2018-07-13T14:50:37.883Z,1520
2018-07-13T14:51:39.729Z,1384
2018-07-13T14:52:42.561Z,1364
2018-07-13T14:53:43.958Z,1196
2018-07-13T14:54:45.353Z,1180
2018-07-13T14:55:48.151Z,1292
2018-07-13T14:56:49.974Z,1288
2018-07-13T14:57:52.318Z,1264
2018-07-13T14:58:53.708Z,1244
2018-07-13T14:59:55.109Z,1216
2018-07-13T15:00:56.440Z,1116
2018-07-13T15:01:57.919Z,1152
2018-07-13T15:02:59.314Z,1240
2018-07-13T15:04:01.678Z,1108
2018-07-13T15:05:03.324Z,1044
2018-07-13T15:06:05.321Z,1112
2018-07-13T15:07:06.491Z,1132
2018-07-13T15:08:07.892Z,1152
2018-07-13T15:09:10.090Z,1148
2018-07-13T15:10:10.649Z,1136
2018-07-13T15:11:12.035Z,1120
2018-07-13T15:12:13.446Z,1116
2018-07-13T15:13:14.864Z,1092
2018-07-13T15:14:17.949Z,1084
2018-07-13T15:15:20.346Z,1072
2018-07-13T15:16:21.917Z,1064
2018-07-13T15:17:23.397Z,1060
2018-07-13T15:18:24.786Z,1052
2018-07-13T15:19:28.425Z,1056
2018-07-13T15:20:30.564Z,1056
2018-07-13T15:21:33.114Z,1064
2018-07-13T15:22:35.903Z,1048
2018-07-13T15:23:37.285Z,1048
2018-07-13T15:24:39.934Z,1044
2018-07-13T15:25:41.344Z,1044
2018-07-13T15:26:42.725Z,1044
2018-07-13T15:27:44.890Z,1036
2018-07-13T15:28:48.082Z,1040
2018-07-13T15:29:50.820Z,1036
2018-07-13T15:30:53.222Z,1032
2018-07-13T15:31:55.433Z,1036
2018-07-13T15:32:57.341Z,1028
2018-07-13T15:33:58.750Z,1028
2018-07-13T15:35:00.146Z,1024
2018-07-13T15:36:01.554Z,1012
2018-07-13T15:37:04.037Z,1016
2018-07-13T15:38:05.436Z,1016
2018-07-13T15:39:06.833Z,1016
2018-07-13T15:40:08.213Z,1016
2018-07-13T15:41:09.607Z,1036
2018-07-13T15:42:11.016Z,1036
2018-07-13T15:43:12.431Z,1028
2018-07-13T15:44:13.847Z,1020
2018-07-13T15:45:15.286Z,1020
2018-07-13T15:46:16.690Z,1020
2018-07-13T15:47:18.073Z,1024
2018-07-13T15:48:19.491Z,1020
2018-07-13T15:49:20.885Z,1024
2018-07-13T15:50:22.295Z,1028
2018-07-13T15:51:23.701Z,1036
2018-07-13T15:52:25.095Z,1036
2018-07-13T15:53:26.491Z,1036
2018-07-13T15:54:27.889Z,1036
2018-07-13T15:55:29.296Z,1036
2018-07-13T15:56:31.196Z,1040
2018-07-13T15:57:32.594Z,1040
2018-07-13T15:58:34.094Z,1040
2018-07-13T15:59:35.401Z,1048
2018-07-13T16:00:36.790Z,1044
2018-07-13T16:01:38.192Z,1048
2018-07-13T16:02:39.587Z,1056
2018-07-13T16:03:40.989Z,1060
2018-07-13T16:04:42.379Z,1056
2018-07-13T16:05:43.778Z,1064
2018-07-13T16:06:45.176Z,1060
2018-07-13T16:07:46.578Z,1064
2018-07-13T16:08:47.966Z,1068
2018-07-13T16:09:50.006Z,1068
2018-07-13T16:10:51.448Z,1072
2018-07-13T16:11:52.768Z,1072
2018-07-13T16:12:54.154Z,1068
2018-07-13T16:13:55.561Z,1072
2018-07-13T16:14:57.637Z,1072
2018-07-13T16:15:59.040Z,1072
2018-07-13T16:17:00.964Z,1076
2018-07-13T16:18:02.368Z,1076
2018-07-13T16:19:03.776Z,1084
2018-07-13T16:20:05.170Z,1080
2018-07-13T16:21:06.579Z,1080
2018-07-13T16:22:07.980Z,1084
2018-07-13T16:23:09.379Z,1080
2018-07-13T16:24:10.787Z,1084
2018-07-13T16:25:12.188Z,1084
2018-07-13T16:26:13.596Z,1096
2018-07-13T16:27:14.991Z,1096
2018-07-13T16:28:16.458Z,1104
2018-07-13T16:29:17.752Z,1108
2018-07-13T16:30:19.149Z,1120
2018-07-13T16:31:20.556Z,1120
2018-07-13T16:32:21.958Z,1124
2018-07-13T16:33:23.356Z,1128
2018-07-13T16:34:24.752Z,1128
2018-07-13T16:35:26.152Z,1136
2018-07-13T16:36:27.544Z,1140
2018-07-13T16:37:28.936Z,1136
2018-07-13T16:38:30.334Z,1136
2018-07-13T16:39:31.727Z,1140
2018-07-13T16:40:33.139Z,1144
2018-07-13T16:41:34.528Z,1156
2018-07-13T16:42:35.930Z,1160
2018-07-13T16:43:37.334Z,1168
2018-07-13T16:44:38.744Z,1172
2018-07-13T16:45:40.145Z,1180
2018-07-13T16:46:41.539Z,1188
2018-07-13T16:47:42.924Z,1200
2018-07-13T16:48:44.332Z,1212
2018-07-13T16:49:45.739Z,1224
2018-07-13T16:50:47.198Z,1232
2018-07-13T16:51:48.577Z,1240
2018-07-13T16:52:49.959Z,1248
2018-07-13T16:53:51.355Z,1252
2018-07-13T16:54:52.759Z,1252
2018-07-13T16:55:54.156Z,1244
2018-07-13T16:56:55.552Z,1240
2018-07-13T16:57:56.976Z,1236
2018-07-13T16:58:58.460Z,1224
2018-07-13T16:59:59.864Z,1216
2018-07-13T17:01:01.255Z,1204
2018-07-13T17:02:02.655Z,1196
2018-07-13T17:03:04.059Z,1188
2018-07-13T17:04:05.439Z,1176
2018-07-13T17:05:06.842Z,1172
2018-07-13T17:06:08.239Z,1168
2018-07-13T17:07:09.649Z,1164
2018-07-13T17:08:11.031Z,1156
2018-07-13T17:09:12.437Z,1152
2018-07-13T17:10:13.837Z,1144
2018-07-13T17:11:15.253Z,1132
2018-07-13T17:12:16.645Z,1120
2018-07-13T17:13:18.049Z,1108
2018-07-13T17:14:19.455Z,1100
2018-07-13T17:15:20.852Z,1088
2018-07-13T17:16:22.250Z,1076
2018-07-13T17:17:23.639Z,1072
2018-07-13T17:18:25.030Z,1068
2018-07-13T17:19:26.435Z,1064
2018-07-13T17:20:27.912Z,1060
2018-07-13T17:21:29.222Z,1056
2018-07-13T17:22:30.620Z,1048
2018-07-13T17:23:32.872Z,1036
2018-07-13T17:24:34.267Z,1028
2018-07-13T17:25:35.686Z,1020
2018-07-13T17:26:37.090Z,1008
2018-07-13T17:27:38.486Z,1000
2018-07-13T17:28:39.899Z,988
2018-07-13T17:29:41.300Z,980
2018-07-13T17:30:42.700Z,968
2018-07-13T17:31:44.100Z,964
2018-07-13T17:32:45.488Z,956
2018-07-13T17:33:46.896Z,940
2018-07-13T17:34:48.297Z,940
2018-07-13T17:35:49.697Z,932
2018-07-13T17:36:51.091Z,936
2018-07-13T17:37:52.490Z,932
2018-07-13T17:38:53.877Z,928
2018-07-13T17:39:55.293Z,916
2018-07-13T17:40:56.695Z,904
2018-07-13T17:41:58.081Z,892
2018-07-13T17:42:59.523Z,884
2018-07-13T17:44:00.852Z,872
2018-07-13T17:45:02.260Z,864
2018-07-13T17:46:03.603Z,856
2018-07-13T17:47:05.001Z,848
2018-07-13T17:48:06.398Z,836
2018-07-13T17:49:07.817Z,824
2018-07-13T17:50:09.220Z,816
2018-07-13T17:51:10.628Z,808
2018-07-13T17:52:12.060Z,800
2018-07-13T17:53:13.474Z,788
2018-07-13T17:54:14.876Z,776
2018-07-13T17:55:16.266Z,764
2018-07-13T17:56:17.657Z,752
2018-07-13T17:57:19.054Z,740
2018-07-13T17:58:20.462Z,728
2018-07-13T17:59:21.846Z,716
2018-07-13T18:00:23.255Z,704
2018-07-13T18:01:24.650Z,692
2018-07-13T18:02:26.037Z,684
2018-07-13T18:03:27.454Z,676
2018-07-13T18:04:28.863Z,672
2018-07-13T18:05:30.246Z,664
2018-07-13T18:06:31.653Z,656
2018-07-13T18:07:33.059Z,644
2018-07-13T18:08:34.467Z,640
2018-07-13T18:09:35.867Z,636
2018-07-13T18:10:37.263Z,636
2018-07-13T18:11:38.669Z,632
2018-07-13T18:12:40.140Z,632
2018-07-13T18:13:41.429Z,636
2018-07-13T18:14:42.836Z,632
2018-07-13T18:15:44.260Z,624
2018-07-13T18:16:45.645Z,616
2018-07-13T18:17:47.055Z,612
2018-07-13T18:18:48.462Z,608
2018-07-13T18:19:49.875Z,604
2018-07-13T18:20:51.269Z,600
2018-07-13T18:21:52.625Z,596
2018-07-13T18:22:54.037Z,596
2018-07-13T18:23:55.441Z,588
2018-07-13T18:24:56.830Z,584
2018-07-13T18:25:58.256Z,576
2018-07-13T18:26:59.660Z,568
2018-07-13T18:28:01.968Z,516
2018-07-13T18:29:03.374Z,488
2018-07-13T18:30:04.769Z,448
2018-07-13T18:31:07.513Z,448
2018-07-13T18:32:08.917Z,440
2018-07-13T18:33:10.339Z,448
2018-07-13T18:34:11.741Z,384
2018-07-13T18:35:13.154Z,276
2018-07-13T18:36:14.557Z,312
2018-07-13T18:37:15.975Z,300
2018-07-13T18:38:17.392Z,296
2018-07-13T18:39:18.802Z,288
2018-07-13T18:40:20.234Z,280
2018-07-13T18:41:21.652Z,276
2018-07-13T18:42:23.780Z,264
2018-07-13T18:43:25.227Z,256
2018-07-13T18:44:26.751Z,248
2018-07-13T18:45:28.012Z,244
2018-07-13T18:46:29.417Z,232
2018-07-13T18:47:30.872Z,224
2018-07-13T18:48:32.283Z,220
2018-07-13T18:49:33.683Z,208
2018-07-13T18:50:36.114Z,204
2018-07-13T18:51:37.529Z,196
2018-07-13T18:52:39.470Z,192
2018-07-13T18:53:40.866Z,180
2018-07-13T18:54:42.254Z,176
2018-07-13T18:55:43.653Z,168
2018-07-13T18:56:45.089Z,160
2018-07-13T18:57:47.432Z,152
2018-07-13T18:58:48.882Z,148
2018-07-13T18:59:50.293Z,144
2018-07-13T19:00:52.316Z,136
2018-07-13T19:01:55.253Z,132
2018-07-13T19:02:57.345Z,124
2018-07-13T19:03:59.238Z,120
2018-07-13T19:05:00.681Z,116
2018-07-13T19:06:02.139Z,108
2018-07-13T19:07:03.630Z,104
2018-07-13T19:08:05.037Z,100
2018-07-13T19:09:07.455Z,100
2018-07-13T19:10:08.875Z,92
2018-07-13T19:11:10.278Z,88
2018-07-13T19:12:11.797Z,84
2018-07-13T19:13:14.723Z,84
2018-07-13T19:14:16.315Z,80
2018-07-13T19:15:17.786Z,76
2018-07-13T19:16:20.199Z,72
2018-07-13T19:17:23.435Z,68
2018-07-13T19:18:25.571Z,64
2018-07-13T19:19:26.993Z,60
2018-07-13T19:20:30.225Z,56
2018-07-13T19:21:31.710Z,56
2018-07-13T19:22:33.319Z,52
2018-07-13T19:23:34.809Z,48
2018-07-13T19:24:36.492Z,44
2018-07-13T19:25:39.388Z,40
2018-07-13T19:26:40.932Z,40
2018-07-13T19:27:43.389Z,40
2018-07-13T19:28:45.480Z,32
2018-07-13T19:29:47.864Z,32
2018-07-13T19:30:49.446Z,28
2018-07-13T19:31:52.389Z,28
2018-07-13T19:32:54.694Z,28
2018-07-13T19:33:56.647Z,24
2018-07-13T19:34:58.166Z,24
2018-07-13T19:36:00.363Z,24
2018-07-13T19:37:02.501Z,16
2018-07-13T19:38:05.735Z,16
2018-07-13T19:39:07.573Z,16
2018-07-13T19:40:11.244Z,16
2018-07-13T19:41:14.198Z,16
2018-07-13T19:42:15.754Z,12
2018-07-13T19:43:20.319Z,8
2018-07-13T19:44:22.425Z,8
2018-07-13T19:45:24.526Z,8
2018-07-13T19:46:26.705Z,8
2018-07-13T19:47:28.277Z,8
2018-07-13T19:48:31.567Z,8
2018-07-13T19:49:35.244Z,4
2018-07-13T19:50:37.699Z,8
2018-07-13T19:51:39.868Z,4
2018-07-13T19:52:42.852Z,4
2018-07-13T19:53:44.294Z,4
2018-07-13T19:54:46.506Z,4
2018-07-13T19:55:50.090Z,4
2018-07-13T19:56:53.898Z,4
2018-07-13T19:57:55.989Z,4
2018-07-13T19:58:57.408Z,0
2018-07-13T19:59:59.757Z,0
2018-07-13T20:01:01.747Z,4
2018-07-13T20:02:04.104Z,4
2018-07-13T20:03:05.667Z,4
2018-07-13T20:04:08.979Z,0
2018-07-13T20:05:10.437Z,0
2018-07-13T20:06:13.452Z,0
2018-07-13T20:07:15.575Z,0
2018-07-13T20:08:17.048Z,0
2018-07-13T20:09:18.590Z,0
2018-07-13T20:10:21.260Z,0
2018-07-13T20:11:23.755Z,0
2018-07-13T20:12:26.989Z,0
2018-07-13T20:13:31.755Z,0
2018-07-13T20:14:33.680Z,0
2018-07-13T20:15:37.589Z,0
2018-07-13T20:16:39.657Z,0
2018-07-13T20:17:41.657Z,0
2018-07-13T20:18:45.421Z,0
2018-07-13T20:19:47.439Z,0
2018-07-13T20:20:51.510Z,0
2018-07-13T20:21:54.839Z,0
2018-07-13T20:22:58.355Z,0
2018-07-13T20:24:00.832Z,0
2018-07-13T20:25:05.913Z,0
2018-07-13T20:26:08.294Z,0
2018-07-13T20:27:10.793Z,0
2018-07-13T20:28:15.258Z,0
2018-07-13T20:29:18.930Z,0
2018-07-13T20:30:20.419Z,0
2018-07-13T20:31:22.936Z,0
2018-07-13T20:32:27.379Z,0
2018-07-13T20:33:32.855Z,4
2018-07-13T20:34:36.260Z,0
2018-07-13T20:35:37.938Z,0
2018-07-13T20:36:40.172Z,0
2018-07-13T20:37:42.415Z,0
2018-07-13T20:38:43.898Z,0
2018-07-13T20:39:47.880Z,0
2018-07-13T20:40:50.321Z,0
2018-07-13T20:41:52.458Z,0
2018-07-13T20:42:55.439Z,0
2018-07-13T20:43:58.432Z,0
2018-07-13T20:45:01.779Z,0
2018-07-13T20:46:03.272Z,0
2018-07-13T20:47:06.765Z,0
2018-07-13T20:48:10.760Z,0
2018-07-13T20:49:12.997Z,0
2018-07-13T20:50:15.296Z,0
2018-07-13T20:51:18.057Z,0
2018-07-13T20:52:20.956Z,0
2018-07-13T20:53:23.114Z,0
2018-07-13T20:54:25.215Z,0
2018-07-13T20:55:26.764Z,0
2018-07-13T20:56:29.835Z,0
2018-07-13T20:57:32.032Z,0
2018-07-13T20:58:33.767Z,0
2018-07-13T20:59:36.158Z,0
2018-07-13T21:00:38.366Z,0
2018-07-13T21:01:40.496Z,0
2018-07-13T21:02:43.250Z,0
2018-07-13T21:03:46.349Z,0
2018-07-13T21:04:47.873Z,0
2018-07-13T21:05:50.136Z,0
2018-07-13T21:06:52.434Z,0
2018-07-13T21:07:54.476Z,0
2018-07-13T21:08:56.893Z,0
2018-07-13T21:09:59.331Z,0
2018-07-13T21:11:01.317Z,0
2018-07-13T21:12:02.765Z,0
2018-07-13T21:13:05.217Z,0
2018-07-13T21:14:07.224Z,0
2018-07-13T21:15:08.752Z,0
2018-07-13T21:16:11.946Z,0
2018-07-13T21:17:13.418Z,0
2018-07-13T21:18:15.366Z,0
2018-07-13T21:19:18.275Z,0
2018-07-13T21:20:20.067Z,0
2018-07-13T21:21:21.534Z,0
2018-07-13T21:22:23.701Z,0
2018-07-13T21:23:25.176Z,0
2018-07-13T21:24:26.624Z,0
2018-07-13T21:25:28.244Z,0
2018-07-13T21:26:29.707Z,0
2018-07-13T21:27:31.165Z,0
2018-07-13T21:28:32.637Z,0
2018-07-13T21:29:34.844Z,0
2018-07-13T21:30:37.049Z,0
2018-07-13T21:31:38.494Z,0
2018-07-13T21:32:40.834Z,0
2018-07-13T21:33:42.272Z,0
2018-07-13T21:34:43.696Z,0
2018-07-13T21:35:45.113Z,0
2018-07-13T21:36:46.555Z,0
2018-07-13T21:37:47.971Z,0
2018-07-13T21:38:49.415Z,0
2018-07-13T21:39:50.837Z,0
2018-07-13T21:40:52.244Z,0
2018-07-13T21:41:55.162Z,0
2018-07-13T21:42:56.556Z,0
2018-07-13T21:43:57.965Z,0
2018-07-13T21:44:59.367Z,0
2018-07-13T21:46:00.790Z,0
2018-07-13T21:47:02.199Z,0
2018-07-13T21:48:03.593Z,0
2018-07-13T21:49:05.367Z,0
2018-07-13T21:50:07.250Z,0
2018-07-13T21:51:08.634Z,0
2018-07-13T21:52:10.944Z,0
2018-07-13T21:53:12.214Z,0
2018-07-13T21:54:14.092Z,0
2018-07-13T21:55:17.935Z,0
2018-07-13T21:56:19.325Z,0
2018-07-13T21:57:20.727Z,0
2018-07-13T21:58:22.801Z,0
2018-07-13T21:59:24.170Z,0
2018-07-13T22:00:26.279Z,0
2018-07-13T22:01:27.668Z,0
2018-07-13T22:02:29.086Z,0
2018-07-13T22:03:31.114Z,0
2018-07-13T22:04:32.494Z,0
2018-07-13T22:05:34.933Z,0
2018-07-13T22:06:37.004Z,0
2018-07-13T22:07:39.417Z,0
2018-07-13T22:08:40.826Z,0